sensor_id;sensor_type;location;lat;lon;timestamp;pressure;altitude;pressure_sealevel;temperature;humidity
50356;BME280;36264;51.296;-0.602;2023-04-08T00:00:12;102094.38;;;12.55;46.54
50356;BME280;36264;51.296;-0.602;2023-04-08T00:02:38;102097.81;;;12.57;46.78
50356;BME280;36264;51.296;-0.602;2023-04-08T00:05:04;102100.34;;;12.61;46.53
50356;BME280;36264;51.296;-0.602;2023-04-08T00:07:30;102099.63;;;12.53;46.48
50356;BME280;36264;51.296;-0.602;2023-04-08T00:09:55;102101.34;;;12.53;46.42
50356;BME280;36264;51.296;-0.602;2023-04-08T00:12:21;102102.22;;;12.55;46.39
50356;BME280;36264;51.296;-0.602;2023-04-08T00:14:46;102099.66;;;12.52;46.25
50356;BME280;36264;51.296;-0.602;2023-04-08T00:17:11;102111.84;;;12.48;46.23
50356;BME280;36264;51.296;-0.602;2023-04-08T00:19:37;102121.69;;;12.32;46.81
50356;BME280;36264;51.296;-0.602;2023-04-08T00:22:02;102119.13;;;12.29;46.93
50356;BME280;36264;51.296;-0.602;2023-04-08T00:24:27;102118.25;;;12.30;46.72
50356;BME280;36264;51.296;-0.602;2023-04-08T00:26:53;102114.72;;;12.34;46.71
50356;BME280;36264;51.296;-0.602;2023-04-08T00:29:18;102120.09;;;12.23;46.93
50356;BME280;36264;51.296;-0.602;2023-04-08T00:31:44;102115.81;;;12.18;46.93
50356;BME280;36264;51.296;-0.602;2023-04-08T00:34:09;102120.22;;;12.16;47.09
50356;BME280;36264;51.296;-0.602;2023-04-08T00:36:35;102117.59;;;12.16;47.03
50356;BME280;36264;51.296;-0.602;2023-04-08T00:39:01;102113.19;;;12.19;46.65
50356;BME280;36264;51.296;-0.602;2023-04-08T00:41:28;102120.13;;;12.22;46.53
50356;BME280;36264;51.296;-0.602;2023-04-08T00:43:53;102113.19;;;12.21;46.55
50356;BME280;36264;51.296;-0.602;2023-04-08T00:46:20;102110.53;;;12.24;46.64
50356;BME280;36264;51.296;-0.602;2023-04-08T00:48:46;102105.38;;;12.19;46.33
50356;BME280;36264;51.296;-0.602;2023-04-08T00:51:11;102111.47;;;12.21;46.50
50356;BME280;36264;51.296;-0.602;2023-04-08T00:53:37;102115.88;;;12.14;46.46
50356;BME280;36264;51.296;-0.602;2023-04-08T00:56:03;102105.47;;;12.13;46.52
50356;BME280;36264;51.296;-0.602;2023-04-08T00:58:28;102109.06;;;12.07;46.57
50356;BME280;36264;51.296;-0.602;2023-04-08T01:01:02;102109.66;;;12.25;46.45
50356;BME280;36264;51.296;-0.602;2023-04-08T01:06:31;102118.41;;;12.19;46.72
50356;BME280;36264;51.296;-0.602;2023-04-08T01:09:04;102116.75;;;12.17;46.55
50356;BME280;36264;51.296;-0.602;2023-04-08T01:11:31;102117.78;;;12.03;46.42
50356;BME280;36264;51.296;-0.602;2023-04-08T01:14:01;102116.91;;;12.04;46.69
50356;BME280;36264;51.296;-0.602;2023-04-08T01:16:29;102117.06;;;11.95;46.62
50356;BME280;36264;51.296;-0.602;2023-04-08T01:18:55;102120.53;;;11.94;46.67
50356;BME280;36264;51.296;-0.602;2023-04-08T01:21:21;102126.25;;;12.18;46.27
50356;BME280;36264;51.296;-0.602;2023-04-08T01:24:09;102121.16;;;12.10;46.24
50356;BME280;36264;51.296;-0.602;2023-04-08T01:26:38;102119.78;;;11.83;46.48
50356;BME280;36264;51.296;-0.602;2023-04-08T01:29:04;102122.41;;;11.81;46.48
50356;BME280;36264;51.296;-0.602;2023-04-08T01:31:31;102122.41;;;11.83;46.43
50356;BME280;36264;51.296;-0.602;2023-04-08T01:33:58;102122.28;;;11.90;46.34
50356;BME280;36264;51.296;-0.602;2023-04-08T01:36:25;102118.88;;;11.87;46.22
50356;BME280;36264;51.296;-0.602;2023-04-08T01:38:52;102116.38;;;11.81;46.29
50356;BME280;36264;51.296;-0.602;2023-04-08T01:41:18;102122.34;;;11.86;46.18
50356;BME280;36264;51.296;-0.602;2023-04-08T01:43:46;102116.28;;;11.87;46.07
50356;BME280;36264;51.296;-0.602;2023-04-08T01:46:12;102119.91;;;11.73;46.33
50356;BME280;36264;51.296;-0.602;2023-04-08T01:48:39;102125.13;;;11.73;46.34
50356;BME280;36264;51.296;-0.602;2023-04-08T01:51:05;102122.56;;;11.70;46.55
50356;BME280;36264;51.296;-0.602;2023-04-08T01:53:31;102124.44;;;11.59;46.65
50356;BME280;36264;51.296;-0.602;2023-04-08T01:56:10;102125.09;;;11.75;46.73
50356;BME280;36264;51.296;-0.602;2023-04-08T01:58:41;102129.63;;;11.60;46.83
50356;BME280;36264;51.296;-0.602;2023-04-08T02:01:10;102127.06;;;11.57;46.91
50356;BME280;36264;51.296;-0.602;2023-04-08T02:03:37;102135.81;;;11.55;46.86
50356;BME280;36264;51.296;-0.602;2023-04-08T02:06:05;102127.16;;;11.50;46.76
50356;BME280;36264;51.296;-0.602;2023-04-08T02:08:33;102124.47;;;11.57;46.73
50356;BME280;36264;51.296;-0.602;2023-04-08T02:10:58;102124.78;;;11.34;47.08
50356;BME280;36264;51.296;-0.602;2023-04-08T02:13:24;102129.16;;;11.29;47.23
50356;BME280;36264;51.296;-0.602;2023-04-08T02:15:56;102129.88;;;11.44;47.16
50356;BME280;36264;51.296;-0.602;2023-04-08T02:18:25;102127.38;;;11.34;47.10
50356;BME280;36264;51.296;-0.602;2023-04-08T02:21:18;102129.84;;;11.47;47.03
50356;BME280;36264;51.296;-0.602;2023-04-08T02:23:47;102128.97;;;11.45;47.04
50356;BME280;36264;51.296;-0.602;2023-04-08T02:26:15;102130.78;;;11.38;46.88
50356;BME280;36264;51.296;-0.602;2023-04-08T02:28:41;102128.34;;;11.24;47.22
50356;BME280;36264;51.296;-0.602;2023-04-08T02:31:11;102136.00;;;11.38;47.15
50356;BME280;36264;51.296;-0.602;2023-04-08T02:33:41;102136.91;;;11.34;47.34
50356;BME280;36264;51.296;-0.602;2023-04-08T02:36:07;102135.25;;;11.28;47.36
50356;BME280;36264;51.296;-0.602;2023-04-08T02:38:33;102139.66;;;11.21;47.20
50356;BME280;36264;51.296;-0.602;2023-04-08T02:40:59;102131.03;;;11.16;47.18
50356;BME280;36264;51.296;-0.602;2023-04-08T02:43:24;102134.56;;;11.14;47.27
50356;BME280;36264;51.296;-0.602;2023-04-08T02:45:57;102133.63;;;11.16;47.39
50356;BME280;36264;51.296;-0.602;2023-04-08T02:48:28;102141.56;;;11.09;47.59
50356;BME280;36264;51.296;-0.602;2023-04-08T02:50:53;102152.78;;;11.11;47.66
50356;BME280;36264;51.296;-0.602;2023-04-08T02:53:19;102150.16;;;11.14;47.51
50356;BME280;36264;51.296;-0.602;2023-04-08T02:55:44;102147.56;;;11.14;47.37
50356;BME280;36264;51.296;-0.602;2023-04-08T02:58:10;102144.09;;;11.10;47.42
50356;BME280;36264;51.296;-0.602;2023-04-08T03:00:35;102158.00;;;11.09;47.56
50356;BME280;36264;51.296;-0.602;2023-04-08T03:03:03;102151.06;;;11.08;47.35
50356;BME280;36264;51.296;-0.602;2023-04-08T03:05:29;102158.06;;;11.03;47.47
50356;BME280;36264;51.296;-0.602;2023-04-08T03:07:54;102158.88;;;11.08;47.33
50356;BME280;36264;51.296;-0.602;2023-04-08T03:10:20;102164.16;;;10.99;47.37
50356;BME280;36264;51.296;-0.602;2023-04-08T03:12:45;102161.59;;;10.96;47.45
50356;BME280;36264;51.296;-0.602;2023-04-08T03:15:10;102172.00;;;10.93;47.38
50356;BME280;36264;51.296;-0.602;2023-04-08T03:17:36;102172.91;;;10.93;47.45
50356;BME280;36264;51.296;-0.602;2023-04-08T03:20:01;102169.41;;;10.94;47.37
50356;BME280;36264;51.296;-0.602;2023-04-08T03:22:29;102176.38;;;10.89;47.25
50356;BME280;36264;51.296;-0.602;2023-04-08T03:24:54;102174.69;;;10.86;47.35
50356;BME280;36264;51.296;-0.602;2023-04-08T03:27:19;102176.44;;;10.83;47.58
50356;BME280;36264;51.296;-0.602;2023-04-08T03:29:45;102180.81;;;10.79;47.66
50356;BME280;36264;51.296;-0.602;2023-04-08T03:32:11;102181.59;;;10.87;47.62
50356;BME280;36264;51.296;-0.602;2023-04-08T03:34:36;102184.19;;;10.87;47.50
50356;BME280;36264;51.296;-0.602;2023-04-08T03:37:01;102187.63;;;10.91;47.29
50356;BME280;36264;51.296;-0.602;2023-04-08T03:39:27;102183.28;;;10.93;47.27
50356;BME280;36264;51.296;-0.602;2023-04-08T03:41:52;102190.22;;;10.91;47.24
50356;BME280;36264;51.296;-0.602;2023-04-08T03:44:17;102190.22;;;10.93;47.08
50356;BME280;36264;51.296;-0.602;2023-04-08T03:46:43;102189.38;;;10.91;46.84
50356;BME280;36264;51.296;-0.602;2023-04-08T03:49:08;102193.00;;;10.74;47.02
50356;BME280;36264;51.296;-0.602;2023-04-08T03:51:33;102190.47;;;10.66;47.30
50356;BME280;36264;51.296;-0.602;2023-04-08T03:53:59;102186.16;;;10.62;47.39
50356;BME280;36264;51.296;-0.602;2023-04-08T03:56:24;102193.91;;;10.65;47.24
50356;BME280;36264;51.296;-0.602;2023-04-08T03:58:50;102194.81;;;10.63;47.45
50356;BME280;36264;51.296;-0.602;2023-04-08T04:01:15;102193.91;;;10.68;47.34
50356;BME280;36264;51.296;-0.602;2023-04-08T04:03:41;102195.66;;;10.66;47.19
50356;BME280;36264;51.296;-0.602;2023-04-08T04:06:06;102195.63;;;10.69;47.08
50356;BME280;36264;51.296;-0.602;2023-04-08T04:08:32;102208.63;;;10.68;47.22
50356;BME280;36264;51.296;-0.602;2023-04-08T04:11:00;102199.88;;;10.78;47.01
50356;BME280;36264;51.296;-0.602;2023-04-08T04:13:25;102202.59;;;10.67;46.16
50356;BME280;36264;51.296;-0.602;2023-04-08T04:15:51;102203.47;;;10.63;47.03
50356;BME280;36264;51.296;-0.602;2023-04-08T04:18:16;102198.28;;;10.63;47.01
50356;BME280;36264;51.296;-0.602;2023-04-08T04:20:42;102198.31;;;10.57;46.85
50356;BME280;36264;51.296;-0.602;2023-04-08T04:23:08;102205.28;;;10.55;46.99
50356;BME280;36264;51.296;-0.602;2023-04-08T04:25:33;102211.38;;;10.48;46.91
50356;BME280;36264;51.296;-0.602;2023-04-08T04:27:59;102212.28;;;10.45;46.93
50356;BME280;36264;51.296;-0.602;2023-04-08T04:30:25;102210.53;;;10.47;46.83
50356;BME280;36264;51.296;-0.602;2023-04-08T04:32:51;102209.69;;;10.44;46.99
50356;BME280;36264;51.296;-0.602;2023-04-08T04:35:16;102220.09;;;10.41;47.09
50356;BME280;36264;51.296;-0.602;2023-04-08T04:37:41;102211.38;;;10.49;46.68
50356;BME280;36264;51.296;-0.602;2023-04-08T04:40:07;102222.63;;;10.51;46.62
50356;BME280;36264;51.296;-0.602;2023-04-08T04:42:33;102215.69;;;10.52;46.64
50356;BME280;36264;51.296;-0.602;2023-04-08T04:44:58;102224.34;;;10.49;46.68
50356;BME280;36264;51.296;-0.602;2023-04-08T04:47:24;102221.75;;;10.48;46.70
50356;BME280;36264;51.296;-0.602;2023-04-08T04:49:50;102221.84;;;10.36;46.93
50356;BME280;36264;51.296;-0.602;2023-04-08T04:52:16;102229.56;;;10.48;46.54
50356;BME280;36264;51.296;-0.602;2023-04-08T04:54:41;102223.50;;;10.49;46.57
50356;BME280;36264;51.296;-0.602;2023-04-08T04:57:06;102230.44;;;10.51;46.38
50356;BME280;36264;51.296;-0.602;2023-04-08T04:59:32;102230.50;;;10.38;46.83
50356;BME280;36264;51.296;-0.602;2023-04-08T05:01:57;102230.50;;;10.41;46.71
50356;BME280;36264;51.296;-0.602;2023-04-08T05:04:23;102234.78;;;10.43;46.68
50356;BME280;36264;51.296;-0.602;2023-04-08T05:06:49;102233.13;;;10.33;46.82
50356;BME280;36264;51.296;-0.602;2023-04-08T05:09:14;102234.88;;;10.34;46.92
50356;BME280;36264;51.296;-0.602;2023-04-08T05:11:40;102229.69;;;10.28;47.40
50356;BME280;36264;51.296;-0.602;2023-04-08T05:14:05;102230.53;;;10.30;47.39
50356;BME280;36264;51.296;-0.602;2023-04-08T05:16:31;102233.97;;;10.30;47.22
50356;BME280;36264;51.296;-0.602;2023-04-08T05:18:57;102231.41;;;10.24;47.46
50356;BME280;36264;51.296;-0.602;2023-04-08T05:21:22;102227.97;;;10.24;47.38
50356;BME280;36264;51.296;-0.602;2023-04-08T05:23:48;102224.50;;;10.26;47.26
50356;BME280;36264;51.296;-0.602;2023-04-08T05:26:15;102235.72;;;10.27;47.13
50356;BME280;36264;51.296;-0.602;2023-04-08T05:28:40;102235.72;;;10.31;47.24
50356;BME280;36264;51.296;-0.602;2023-04-08T05:31:06;102240.88;;;10.39;46.98
50356;BME280;36264;51.296;-0.602;2023-04-08T05:33:31;102249.50;;;10.44;46.86
50356;BME280;36264;51.296;-0.602;2023-04-08T05:35:56;102251.25;;;10.45;47.21
50356;BME280;36264;51.296;-0.602;2023-04-08T05:38:22;102258.09;;;10.54;47.00
50356;BME280;36264;51.296;-0.602;2023-04-08T05:40:47;102266.78;;;10.51;47.08
50356;BME280;36264;51.296;-0.602;2023-04-08T05:43:12;102255.44;;;10.63;46.95
50356;BME280;36264;51.296;-0.602;2023-04-08T05:45:38;102266.63;;;10.72;46.80
50356;BME280;36264;51.296;-0.602;2023-04-08T05:48:03;102268.41;;;10.66;47.21
50356;BME280;36264;51.296;-0.602;2023-04-08T05:50:28;102270.16;;;10.64;47.30
50356;BME280;36264;51.296;-0.602;2023-04-08T05:52:54;102264.97;;;10.64;47.21
50356;BME280;36264;51.296;-0.602;2023-04-08T05:55:19;102269.25;;;10.70;47.29
50356;BME280;36264;51.296;-0.602;2023-04-08T05:57:45;102272.75;;;10.69;47.52
50356;BME280;36264;51.296;-0.602;2023-04-08T06:00:10;102265.78;;;10.73;48.05
50356;BME280;36264;51.296;-0.602;2023-04-08T06:02:36;102279.59;;;10.79;47.91
50356;BME280;36264;51.296;-0.602;2023-04-08T06:05:02;102274.34;;;10.84;48.00
50356;BME280;36264;51.296;-0.602;2023-04-08T06:07:28;102274.31;;;10.87;48.11
50356;BME280;36264;51.296;-0.602;2023-04-08T06:09:54;102278.56;;;10.97;48.27
50356;BME280;36264;51.296;-0.602;2023-04-08T06:12:20;102271.63;;;10.99;48.28
50356;BME280;36264;51.296;-0.602;2023-04-08T06:14:46;102275.03;;;11.06;48.41
50356;BME280;36264;51.296;-0.602;2023-04-08T06:17:11;102275.88;;;11.06;48.41
50356;BME280;36264;51.296;-0.602;2023-04-08T06:19:37;102279.31;;;11.12;48.49
50356;BME280;36264;51.296;-0.602;2023-04-08T06:22:02;102278.41;;;11.16;48.67
50356;BME280;36264;51.296;-0.602;2023-04-08T06:24:27;102288.75;;;11.25;48.87
50356;BME280;36264;51.296;-0.602;2023-04-08T06:26:54;102296.47;;;11.34;48.84
50356;BME280;36264;51.296;-0.602;2023-04-08T06:29:21;102290.31;;;11.41;49.08
50356;BME280;36264;51.296;-0.602;2023-04-08T06:31:47;102290.31;;;11.41;49.51
50356;BME280;36264;51.296;-0.602;2023-04-08T06:34:12;102285.78;;;11.60;49.31
50356;BME280;36264;51.296;-0.602;2023-04-08T06:36:38;102296.00;;;11.77;49.35
50356;BME280;36264;51.296;-0.602;2023-04-08T06:39:03;102299.47;;;11.78;49.56
50356;BME280;36264;51.296;-0.602;2023-04-08T06:41:29;102298.53;;;11.85;50.01
50356;BME280;36264;51.296;-0.602;2023-04-08T06:43:54;102296.75;;;11.89;50.31
50356;BME280;36264;51.296;-0.602;2023-04-08T06:46:20;102307.16;;;11.89;50.63
50356;BME280;36264;51.296;-0.602;2023-04-08T06:48:45;102308.13;;;11.83;51.14
50356;BME280;36264;51.296;-0.602;2023-04-08T06:51:11;102308.88;;;11.96;51.38
50356;BME280;36264;51.296;-0.602;2023-04-08T06:53:36;102310.53;;;12.00;51.54
50356;BME280;36264;51.296;-0.602;2023-04-08T06:56:01;102313.00;;;12.11;51.66
50356;BME280;36264;51.296;-0.602;2023-04-08T06:58:27;102324.88;;;12.33;51.51
50356;BME280;36264;51.296;-0.602;2023-04-08T07:00:53;102327.59;;;12.23;52.11
50356;BME280;36264;51.296;-0.602;2023-04-08T07:03:22;102329.31;;;12.27;52.45
50356;BME280;36264;51.296;-0.602;2023-04-08T07:05:47;102323.09;;;12.39;52.49
50356;BME280;36264;51.296;-0.602;2023-04-08T07:08:13;102324.72;;;12.46;52.55
50356;BME280;36264;51.296;-0.602;2023-04-08T07:10:38;102327.31;;;12.46;52.43
50356;BME280;36264;51.296;-0.602;2023-04-08T07:13:04;102313.41;;;12.47;52.74
50356;BME280;36264;51.296;-0.602;2023-04-08T07:15:30;102320.16;;;12.60;52.91
50356;BME280;36264;51.296;-0.602;2023-04-08T07:17:55;102312.97;;;12.78;52.57
50356;BME280;36264;51.296;-0.602;2023-04-08T07:20:21;102324.44;;;12.67;53.11
50356;BME280;36264;51.296;-0.602;2023-04-08T07:22:47;102331.34;;;12.67;53.36
50356;BME280;36264;51.296;-0.602;2023-04-08T07:25:13;102330.47;;;12.69;53.61
50356;BME280;36264;51.296;-0.602;2023-04-08T07:27:38;102327.81;;;12.73;53.56
50356;BME280;36264;51.296;-0.602;2023-04-08T07:30:04;102335.56;;;12.79;53.99
50356;BME280;36264;51.296;-0.602;2023-04-08T07:32:29;102336.34;;;12.82;53.89
50356;BME280;36264;51.296;-0.602;2023-04-08T07:34:57;102338.75;;;12.98;53.85
50356;BME280;36264;51.296;-0.602;2023-04-08T07:37:23;102340.50;;;12.97;53.88
50356;BME280;36264;51.296;-0.602;2023-04-08T07:39:48;102340.34;;;13.05;54.01
50356;BME280;36264;51.296;-0.602;2023-04-08T07:42:13;102343.69;;;13.15;54.33
50356;BME280;36264;51.296;-0.602;2023-04-08T07:44:39;102346.97;;;13.28;54.72
50356;BME280;36264;51.296;-0.602;2023-04-08T07:47:04;102347.78;;;13.30;54.42
50356;BME280;36264;51.296;-0.602;2023-04-08T07:49:29;102351.16;;;13.38;54.63
50356;BME280;36264;51.296;-0.602;2023-04-08T07:51:55;102346.00;;;13.35;54.69
50356;BME280;36264;51.296;-0.602;2023-04-08T07:54:21;102356.53;;;13.26;55.43
50356;BME280;36264;51.296;-0.602;2023-04-08T07:56:46;102359.06;;;13.32;55.72
50356;BME280;36264;51.296;-0.602;2023-04-08T07:59:12;102360.69;;;13.40;55.93
50356;BME280;36264;51.296;-0.602;2023-04-08T08:01:37;102361.22;;;13.59;55.72
50356;BME280;36264;51.296;-0.602;2023-04-08T08:04:03;102365.38;;;13.70;56.07
50356;BME280;36264;51.296;-0.602;2023-04-08T08:06:29;102367.88;;;13.77;55.78
50356;BME280;36264;51.296;-0.602;2023-04-08T08:08:56;102374.44;;;13.97;55.74
50356;BME280;36264;51.296;-0.602;2023-04-08T08:11:22;102378.94;;;13.90;55.68
50356;BME280;36264;51.296;-0.602;2023-04-08T08:13:47;102378.06;;;13.91;55.74
50356;BME280;36264;51.296;-0.602;2023-04-08T08:16:12;102376.22;;;13.97;55.82
50356;BME280;36264;51.296;-0.602;2023-04-08T08:18:39;102385.59;;;14.07;55.51
50356;BME280;36264;51.296;-0.602;2023-04-08T08:21:05;102382.13;;;14.05;55.99
50356;BME280;36264;51.296;-0.602;2023-04-08T08:23:31;102386.34;;;14.13;56.22
50356;BME280;36264;51.296;-0.602;2023-04-08T08:26:03;102383.13;;;14.43;55.88
50356;BME280;36264;51.296;-0.602;2023-04-08T08:28:30;102389.16;;;14.46;55.67
50356;BME280;36264;51.296;-0.602;2023-04-08T08:30:56;102384.84;;;14.44;55.77
50356;BME280;36264;51.296;-0.602;2023-04-08T08:33:21;102389.94;;;14.50;56.05
50356;BME280;36264;51.296;-0.602;2023-04-08T08:35:46;102390.69;;;14.57;56.12
50356;BME280;36264;51.296;-0.602;2023-04-08T08:38:12;102390.56;;;14.63;56.00
50356;BME280;36264;51.296;-0.602;2023-04-08T08:40:38;102391.91;;;14.81;56.03
50356;BME280;36264;51.296;-0.602;2023-04-08T08:43:04;102387.84;;;14.69;56.76
50356;BME280;36264;51.296;-0.602;2023-04-08T08:45:29;102381.56;;;14.76;56.94
50356;BME280;36264;51.296;-0.602;2023-04-08T08:47:55;102385.53;;;14.94;56.68
50356;BME280;36264;51.296;-0.602;2023-04-08T08:50:21;102383.88;;;14.90;57.20
50356;BME280;36264;51.296;-0.602;2023-04-08T08:52:50;102387.06;;;15.03;57.06
50356;BME280;36264;51.296;-0.602;2023-04-08T08:55:20;102378.94;;;15.14;56.66
50356;BME280;36264;51.296;-0.602;2023-04-08T08:57:45;102385.22;;;15.07;57.13
50356;BME280;36264;51.296;-0.602;2023-04-08T09:00:15;102379.91;;;15.10;56.89
50356;BME280;36264;51.296;-0.602;2023-04-08T09:02:40;102382.09;;;15.28;56.59
50356;BME280;36264;51.296;-0.602;2023-04-08T09:05:06;102379.69;;;15.19;56.91
50356;BME280;36264;51.296;-0.602;2023-04-08T09:07:34;102376.78;;;15.31;56.79
50356;BME280;36264;51.296;-0.602;2023-04-08T09:10:01;102376.03;;;15.26;57.43
50356;BME280;36264;51.296;-0.602;2023-04-08T09:12:27;102371.28;;;15.42;57.17
50356;BME280;36264;51.296;-0.602;2023-04-08T09:15:08;102374.50;;;15.52;57.55
50356;BME280;36264;51.296;-0.602;2023-04-08T09:17:36;102374.56;;;15.50;57.21
50356;BME280;36264;51.296;-0.602;2023-04-08T09:20:06;102378.53;;;15.65;57.15
50356;BME280;36264;51.296;-0.602;2023-04-08T09:22:44;102368.97;;;15.64;57.34
50356;BME280;36264;51.296;-0.602;2023-04-08T09:25:23;102374.75;;;15.77;58.22
50356;BME280;36264;51.296;-0.602;2023-04-08T09:27:49;102368.59;;;15.80;57.10
50356;BME280;36264;51.296;-0.602;2023-04-08T09:30:16;102376.25;;;15.86;56.79
50356;BME280;36264;51.296;-0.602;2023-04-08T09:32:53;102376.69;;;16.02;57.12
50356;BME280;36264;51.296;-0.602;2023-04-08T09:35:19;102381.16;;;15.98;56.84
50356;BME280;36264;51.296;-0.602;2023-04-08T09:37:45;102381.78;;;16.08;56.67
50356;BME280;36264;51.296;-0.602;2023-04-08T09:40:11;102379.09;;;16.09;57.38
50356;BME280;36264;51.296;-0.602;2023-04-08T09:42:39;102383.91;;;16.25;57.39
50356;BME280;36264;51.296;-0.602;2023-04-08T09:45:06;102392.50;;;16.30;57.40
50356;BME280;36264;51.296;-0.602;2023-04-08T09:47:40;102386.16;;;16.39;57.32
50356;BME280;36264;51.296;-0.602;2023-04-08T09:50:07;102388.59;;;16.45;57.21
50356;BME280;36264;51.296;-0.602;2023-04-08T09:52:41;102393.41;;;16.59;56.73
50356;BME280;36264;51.296;-0.602;2023-04-08T09:55:08;102395.03;;;16.63;56.89
50356;BME280;36264;51.296;-0.602;2023-04-08T09:57:40;102390.19;;;16.79;56.53
50356;BME280;36264;51.296;-0.602;2023-04-08T10:00:08;102393.44;;;16.87;56.68
50356;BME280;36264;51.296;-0.602;2023-04-08T10:02:43;102393.50;;;16.86;56.41
50356;BME280;36264;51.296;-0.602;2023-04-08T10:05:11;102394.28;;;16.89;56.07
50356;BME280;36264;51.296;-0.602;2023-04-08T10:07:38;102387.25;;;16.90;55.70
50356;BME280;36264;51.296;-0.602;2023-04-08T10:10:04;102387.97;;;16.95;55.81
50356;BME280;36264;51.296;-0.602;2023-04-08T10:12:31;102393.41;;;16.89;55.62
50356;BME280;36264;51.296;-0.602;2023-04-08T10:15:34;102393.06;;;16.99;55.61
50356;BME280;36264;51.296;-0.602;2023-04-08T10:23:06;102379.75;;;17.06;55.42
50356;BME280;36264;51.296;-0.602;2023-04-08T10:25:36;102371.72;;;17.10;54.98
50356;BME280;36264;51.296;-0.602;2023-04-08T10:33:15;102375.72;;;17.22;54.37
50356;BME280;36264;51.296;-0.602;2023-04-08T10:35:46;102363.19;;;17.30;54.20
50356;BME280;36264;51.296;-0.602;2023-04-08T10:38:15;102366.31;;;17.42;53.94
50356;BME280;36264;51.296;-0.602;2023-04-08T10:40:42;102361.88;;;17.44;53.96
50356;BME280;36264;51.296;-0.602;2023-04-08T10:43:09;102359.88;;;17.50;53.56
50356;BME280;36264;51.296;-0.602;2023-04-08T10:45:35;102365.97;;;17.51;53.61
50356;BME280;36264;51.296;-0.602;2023-04-08T10:48:20;102359.25;;;17.69;53.17
50356;BME280;36264;51.296;-0.602;2023-04-08T10:51:00;102361.72;;;17.73;49.99
50356;BME280;36264;51.296;-0.602;2023-04-08T10:53:30;102360.63;;;17.79;52.11
50356;BME280;36264;51.296;-0.602;2023-04-08T10:56:06;102353.06;;;17.95;51.29
50356;BME280;36264;51.296;-0.602;2023-04-08T10:58:32;102346.97;;;17.95;51.93
50356;BME280;36264;51.296;-0.602;2023-04-08T11:01:06;102353.47;;;18.08;50.37
50356;BME280;36264;51.296;-0.602;2023-04-08T11:03:33;102346.41;;;18.10;50.44
50356;BME280;36264;51.296;-0.602;2023-04-08T11:05:59;102340.75;;;18.21;51.75
50356;BME280;36264;51.296;-0.602;2023-04-08T11:08:30;102336.66;;;18.36;51.66
50356;BME280;36264;51.296;-0.602;2023-04-08T11:11:02;102343.69;;;18.59;51.57
50356;BME280;36264;51.296;-0.602;2023-04-08T11:13:29;102339.69;;;18.71;51.54
50356;BME280;36264;51.296;-0.602;2023-04-08T11:15:55;102338.28;;;18.84;51.35
50356;BME280;36264;51.296;-0.602;2023-04-08T11:18:21;102331.63;;;18.97;51.34
50356;BME280;36264;51.296;-0.602;2023-04-08T11:20:50;102336.31;;;19.11;50.86
50356;BME280;36264;51.296;-0.602;2023-04-08T11:23:16;102333.69;;;19.11;51.19
50356;BME280;36264;51.296;-0.602;2023-04-08T11:25:42;102339.16;;;19.27;51.00
50356;BME280;36264;51.296;-0.602;2023-04-08T11:28:09;102339.94;;;19.29;50.64
50356;BME280;36264;51.296;-0.602;2023-04-08T11:30:35;102337.81;;;19.17;50.08
50356;BME280;36264;51.296;-0.602;2023-04-08T11:33:01;102335.19;;;19.17;49.65
50356;BME280;36264;51.296;-0.602;2023-04-08T11:35:29;102325.44;;;19.19;48.65
50356;BME280;36264;51.296;-0.602;2023-04-08T11:37:57;102334.84;;;19.04;49.63
50356;BME280;36264;51.296;-0.602;2023-04-08T11:40:23;102332.44;;;19.20;49.41
50356;BME280;36264;51.296;-0.602;2023-04-08T11:42:51;102327.94;;;19.22;49.28
50356;BME280;36264;51.296;-0.602;2023-04-08T11:45:18;102322.81;;;19.19;48.54
50356;BME280;36264;51.296;-0.602;2023-04-08T11:47:45;102319.13;;;19.03;49.03
50356;BME280;36264;51.296;-0.602;2023-04-08T11:50:11;102319.00;;;19.06;49.10
50356;BME280;36264;51.296;-0.602;2023-04-08T11:52:49;102315.53;;;19.26;48.75
50356;BME280;36264;51.296;-0.602;2023-04-08T11:55:28;102319.59;;;19.33;47.01
50356;BME280;36264;51.296;-0.602;2023-04-08T11:57:55;102323.75;;;19.39;48.56
50356;BME280;36264;51.296;-0.602;2023-04-08T12:00:21;102311.81;;;19.50;48.24
50356;BME280;36264;51.296;-0.602;2023-04-08T12:02:47;102310.91;;;19.51;47.69
50356;BME280;36264;51.296;-0.602;2023-04-08T12:05:16;102314.81;;;19.62;48.13
50356;BME280;36264;51.296;-0.602;2023-04-08T12:07:42;102306.19;;;19.79;47.44
50356;BME280;36264;51.296;-0.602;2023-04-08T12:10:10;102303.72;;;19.95;46.93
50356;BME280;36264;51.296;-0.602;2023-04-08T12:12:37;102307.81;;;20.02;47.04
50356;BME280;36264;51.296;-0.602;2023-04-08T12:15:03;102292.81;;;20.02;45.93
50356;BME280;36264;51.296;-0.602;2023-04-08T12:17:28;102287.91;;;20.14;46.18
50356;BME280;36264;51.296;-0.602;2023-04-08T12:19:53;102290.41;;;20.17;46.17
50356;BME280;36264;51.296;-0.602;2023-04-08T12:22:19;102288.47;;;20.20;46.05
50356;BME280;36264;51.296;-0.602;2023-04-08T12:24:45;102288.31;;;20.23;46.04
50356;BME280;36264;51.296;-0.602;2023-04-08T12:27:10;102289.38;;;20.38;45.66
50356;BME280;36264;51.296;-0.602;2023-04-08T12:29:36;102287.06;;;20.50;45.76
50356;BME280;36264;51.296;-0.602;2023-04-08T12:32:01;102277.16;;;20.55;45.78
50356;BME280;36264;51.296;-0.602;2023-04-08T12:34:26;102280.47;;;20.58;45.92
50356;BME280;36264;51.296;-0.602;2023-04-08T12:36:52;102290.56;;;20.50;45.92
50356;BME280;36264;51.296;-0.602;2023-04-08T12:39:19;102288.66;;;20.35;45.95
50356;BME280;36264;51.296;-0.602;2023-04-08T12:41:45;102288.69;;;20.16;45.50
50356;BME280;36264;51.296;-0.602;2023-04-08T12:44:10;102292.69;;;20.05;45.97
50356;BME280;36264;51.296;-0.602;2023-04-08T12:46:35;102284.22;;;19.99;45.66
50356;BME280;36264;51.296;-0.602;2023-04-08T12:49:01;102287.97;;;20.12;45.79
50356;BME280;36264;51.296;-0.602;2023-04-08T12:51:26;102295.94;;;20.30;45.77